createdAt,value
2022-10-10T00:00:25.492Z,100.00
2022-10-10T00:15:27.432Z,100.00
2022-10-10T00:30:29.299Z,100.00
2022-10-10T00:45:38.873Z,100.00
2022-10-10T01:00:40.797Z,100.00
2022-10-10T01:16:01.581Z,100.00
2022-10-10T01:31:04.602Z,100.00
2022-10-10T01:46:14.107Z,100.00
2022-10-10T02:01:26.739Z,100.00
2022-10-10T02:16:29.593Z,100.00
2022-10-10T02:31:33.166Z,100.00
2022-10-10T02:46:35.121Z,100.00
2022-10-10T03:01:36.964Z,100.00
2022-10-10T03:16:38.868Z,100.00
2022-10-10T03:31:41.070Z,100.00
2022-10-10T03:46:42.946Z,100.00
2022-10-10T04:01:44.863Z,100.00
2022-10-10T04:16:46.747Z,100.00
2022-10-10T04:31:48.619Z,100.00
2022-10-10T04:46:50.542Z,100.00
2022-10-10T05:01:52.415Z,100.00
2022-10-10T05:16:54.351Z,100.00
2022-10-10T05:31:56.231Z,100.00
2022-10-10T05:46:58.194Z,100.00
2022-10-10T06:02:00.083Z,100.00
2022-10-10T06:17:02.084Z,100.00
2022-10-10T06:32:03.998Z,100.00
2022-10-10T06:47:06.122Z,100.00
2022-10-10T07:02:09.646Z,100.00
2022-10-10T07:17:11.584Z,100.00
2022-10-10T07:32:13.473Z,100.00
2022-10-10T07:47:15.366Z,100.00
2022-10-10T08:02:17.339Z,100.00
2022-10-10T08:17:19.618Z,100.00
2022-10-10T08:32:21.498Z,100.00
2022-10-10T08:47:25.148Z,100.00
2022-10-10T09:02:50.275Z,100.00
2022-10-10T09:18:01.314Z,100.00
2022-10-10T09:33:07.729Z,100.00
2022-10-10T09:48:09.606Z,100.00
2022-10-10T10:03:13.030Z,100.00
2022-10-10T10:18:19.390Z,100.00
2022-10-10T10:33:27.366Z,100.00
2022-10-10T10:48:44.456Z,100.00
2022-10-10T11:05:20.844Z,100.00
2022-10-10T11:19:20.521Z,82.43
2022-10-10T11:34:27.706Z,92.72
2022-10-10T11:49:36.538Z,68.06
2022-10-10T12:04:38.399Z,60.34
2022-10-10T12:19:40.267Z,53.43
2022-10-10T12:34:48.268Z,54.45
2022-10-10T12:49:53.856Z,55.68
2022-10-10T13:04:59.408Z,65.55
2022-10-10T13:20:01.364Z,81.76
2022-10-10T13:35:06.829Z,96.47
2022-10-10T13:50:17.598Z,91.37
2022-10-10T14:05:26.063Z,100.00
2022-10-10T14:20:27.982Z,100.00
2022-10-10T14:35:29.913Z,100.00
2022-10-10T14:50:32.368Z,100.00
2022-10-10T15:05:34.274Z,100.00
2022-10-10T15:20:36.667Z,100.00
2022-10-10T15:35:56.917Z,100.00
2022-10-10T15:51:00.742Z,100.00
2022-10-10T16:06:03.267Z,100.00
2022-10-10T16:21:09.594Z,100.00
2022-10-10T16:36:15.676Z,100.00
2022-10-10T16:51:18.354Z,100.00
2022-10-10T17:06:21.532Z,100.00
2022-10-10T17:21:23.614Z,100.00
2022-10-10T17:36:26.015Z,100.00
2022-10-10T17:51:27.929Z,100.00
2022-10-10T18:06:30.122Z,100.00
2022-10-10T18:21:32.011Z,100.00
2022-10-10T18:36:34.756Z,100.00
2022-10-10T18:51:37.160Z,100.00
2022-10-10T19:06:39.194Z,100.00
2022-10-10T19:21:41.135Z,100.00
2022-10-10T19:36:43.473Z,100.00
2022-10-10T19:51:45.345Z,100.00
2022-10-10T20:06:47.243Z,100.00
2022-10-10T20:21:49.090Z,100.00
2022-10-10T20:36:50.988Z,100.00
2022-10-10T20:51:53.879Z,100.00
2022-10-10T21:06:55.775Z,100.00
2022-10-10T21:21:57.728Z,100.00
2022-10-10T21:36:59.584Z,100.00
2022-10-10T21:52:01.452Z,100.00
2022-10-10T22:07:04.609Z,100.00
2022-10-10T22:22:06.514Z,100.00
2022-10-10T22:37:08.482Z,100.00
2022-10-10T22:52:10.347Z,100.00
2022-10-10T23:07:12.227Z,100.00
2022-10-10T23:22:14.095Z,100.00
2022-10-10T23:37:16.098Z,100.00
2022-10-10T23:52:18.076Z,100.00
